createdAt,value
2023-02-25T00:03:11.329Z,95905.50
2023-02-25T00:08:32.415Z,95898.03
2023-02-25T00:13:53.590Z,95895.91
2023-02-25T00:19:14.723Z,95906.63
2023-02-25T00:24:35.488Z,95913.31
2023-02-25T00:29:56.555Z,95919.13
2023-02-25T00:35:17.844Z,95928.06
2023-02-25T00:40:39.215Z,95928.41
2023-02-25T00:46:01.391Z,95921.28
2023-02-25T00:51:23.936Z,95925.22
2023-02-25T00:56:44.971Z,95912.72
2023-02-25T01:02:05.871Z,95914.19
2023-02-25T01:07:26.744Z,95910.63
2023-02-25T01:12:48.872Z,95907.25
2023-02-25T01:18:09.749Z,95911.94
2023-02-25T01:23:30.666Z,95908.06
2023-02-25T01:28:51.452Z,95918.53
2023-02-25T01:34:17.324Z,95921.19
2023-02-25T01:39:39.557Z,95915.19
2023-02-25T01:45:18.655Z,95920.00
2023-02-25T01:51:04.758Z,95916.16
2023-02-25T01:56:26.020Z,95922.91
2023-02-25T02:01:46.921Z,95912.31
2023-02-25T02:07:07.812Z,95923.59
2023-02-25T02:12:31.643Z,95916.69
2023-02-25T02:17:59.716Z,95913.91
2023-02-25T02:23:42.277Z,95905.47
2023-02-25T02:29:18.420Z,95910.47
2023-02-25T02:34:52.418Z,95909.84
2023-02-25T02:40:27.355Z,95907.16
2023-02-25T02:46:33.413Z,95906.63
2023-02-25T02:52:08.698Z,95906.72
2023-02-25T02:57:30.689Z,95919.88
2023-02-25T03:02:56.347Z,95931.59
2023-02-25T03:08:23.337Z,95929.97
2023-02-25T03:13:44.474Z,95928.69
2023-02-25T03:19:11.534Z,95926.66
2023-02-25T03:24:45.578Z,95938.31
2023-02-25T03:30:06.752Z,95925.88
2023-02-25T03:35:27.792Z,95925.50
2023-02-25T03:40:49.031Z,95917.03
2023-02-25T03:46:10.149Z,95939.44
2023-02-25T03:51:33.340Z,95946.06
2023-02-25T03:56:54.155Z,95959.66
2023-02-25T04:02:15.356Z,95951.31
2023-02-25T04:07:36.389Z,95951.75
2023-02-25T04:12:57.726Z,95950.91
2023-02-25T04:18:18.628Z,95948.41
2023-02-25T04:23:39.533Z,95951.16
2023-02-25T04:29:00.517Z,95951.88
2023-02-25T04:34:21.496Z,95942.16
2023-02-25T04:39:42.493Z,95937.19
2023-02-25T04:45:03.909Z,95933.66
2023-02-25T04:50:24.936Z,95935.75
2023-02-25T04:55:46.504Z,95942.66
2023-02-25T05:01:09.590Z,95930.69
2023-02-25T05:06:32.257Z,95946.06
2023-02-25T05:11:53.022Z,95934.47
2023-02-25T05:17:15.890Z,95941.69
2023-02-25T05:22:36.724Z,95933.47
2023-02-25T05:27:57.535Z,95932.03
2023-02-25T05:33:18.535Z,95927.22
2023-02-25T05:38:40.152Z,95942.78
2023-02-25T05:44:01.435Z,95944.69
2023-02-25T05:49:23.018Z,95946.84
2023-02-25T05:54:44.196Z,95948.09
2023-02-25T06:00:09.898Z,95949.88
2023-02-25T06:05:33.694Z,95957.44
2023-02-25T06:10:54.439Z,95961.31
2023-02-25T06:16:15.257Z,95955.41
2023-02-25T06:21:37.184Z,95967.16
2023-02-25T06:26:59.067Z,95975.69
2023-02-25T06:32:20.326Z,95970.84
2023-02-25T06:37:41.760Z,95981.69
2023-02-25T06:43:02.626Z,95983.94
2023-02-25T06:48:23.513Z,95978.44
2023-02-25T06:53:45.047Z,95995.38
2023-02-25T06:59:06.461Z,95994.94
2023-02-25T07:04:27.658Z,95993.31
2023-02-25T07:09:48.403Z,96010.75
2023-02-25T07:15:09.818Z,96011.84
2023-02-25T07:20:31.075Z,96018.59
2023-02-25T07:25:51.978Z,96008.97
2023-02-25T07:31:14.869Z,96031.06
2023-02-25T07:36:37.623Z,96035.03
2023-02-25T07:41:58.354Z,96061.50
2023-02-25T07:47:22.279Z,96060.06
2023-02-25T07:52:43.242Z,96075.75
2023-02-25T07:58:06.890Z,96085.75
2023-02-25T08:03:28.149Z,96077.19
2023-02-25T08:08:50.921Z,96090.44
2023-02-25T08:14:11.907Z,96102.25
2023-02-25T08:19:33.185Z,96105.75
2023-02-25T08:24:54.338Z,96103.81
2023-02-25T08:30:15.476Z,96102.50
2023-02-25T08:35:36.267Z,96111.19
2023-02-25T08:41:00.445Z,96111.63
2023-02-25T08:46:21.915Z,96110.16
2023-02-25T08:51:42.907Z,96119.53
2023-02-25T08:57:03.685Z,96118.00
2023-02-25T09:02:24.514Z,96125.94
2023-02-25T09:07:45.477Z,96142.06
2023-02-25T09:13:06.596Z,96146.72
2023-02-25T09:18:27.544Z,96150.81
2023-02-25T09:23:51.384Z,96158.66
2023-02-25T09:29:12.358Z,96160.41
2023-02-25T09:34:34.063Z,96170.38
2023-02-25T09:39:54.911Z,96167.25
2023-02-25T09:45:17.920Z,96173.41
2023-02-25T09:50:44.168Z,96176.06
2023-02-25T09:56:06.163Z,96182.22
2023-02-25T10:01:39.026Z,96193.81
2023-02-25T10:07:05.973Z,96189.50
2023-02-25T10:12:57.150Z,96187.88
2023-02-25T10:18:26.473Z,96198.63
2023-02-25T10:24:06.176Z,96194.59
2023-02-25T10:29:35.840Z,96184.34
2023-02-25T10:35:00.007Z,96194.81
2023-02-25T10:40:23.110Z,96198.13
2023-02-25T10:45:44.488Z,96202.59
2023-02-25T10:51:13.886Z,96210.78
2023-02-25T10:56:40.334Z,96212.75
2023-02-25T11:02:01.687Z,96212.97
2023-02-25T11:07:24.361Z,96216.31
2023-02-25T11:12:49.426Z,96210.25
2023-02-25T11:18:27.274Z,96208.59
2023-02-25T11:23:48.574Z,96201.44
2023-02-25T11:29:13.195Z,96222.91
2023-02-25T11:34:34.270Z,96218.16
2023-02-25T11:39:56.231Z,96226.53
2023-02-25T11:45:17.471Z,96235.44
2023-02-25T11:50:45.468Z,96239.63
2023-02-25T11:56:32.437Z,96242.16
2023-02-25T12:02:39.462Z,96227.22
2023-02-25T12:08:20.021Z,96238.44
2023-02-25T12:14:17.920Z,96243.19
2023-02-25T12:20:06.499Z,96249.50
2023-02-25T12:25:46.069Z,96247.50
2023-02-25T12:31:34.909Z,96251.88
2023-02-25T12:37:04.124Z,96250.09
2023-02-25T12:42:43.596Z,96262.13
2023-02-25T12:48:31.767Z,96273.97
2023-02-25T12:54:19.822Z,96277.47
2023-02-25T13:00:09.594Z,96293.81
2023-02-25T13:06:06.232Z,96295.84
2023-02-25T13:12:09.409Z,96297.03
2023-02-25T13:17:35.839Z,96297.38
2023-02-25T13:23:05.752Z,96298.41
2023-02-25T13:28:29.592Z,96309.75
2023-02-25T13:33:53.282Z,96299.66
2023-02-25T13:40:12.662Z,96300.38
2023-02-25T13:45:46.458Z,96286.59
2023-02-25T13:51:07.463Z,96296.16
2023-02-25T13:56:50.118Z,96311.78
2023-02-25T14:02:35.209Z,96316.13
2023-02-25T14:08:07.308Z,96319.88
2023-02-25T14:13:31.379Z,96331.16
2023-02-25T14:19:11.579Z,96322.34
2023-02-25T14:24:38.979Z,96326.16
2023-02-25T14:30:11.191Z,96341.13
2023-02-25T14:35:42.284Z,96349.28
2023-02-25T14:41:21.530Z,96343.53
2023-02-25T14:46:57.517Z,96352.38
2023-02-25T14:52:30.753Z,96364.94
2023-02-25T14:58:29.441Z,96371.00
2023-02-25T15:03:50.601Z,96373.03
2023-02-25T15:09:21.154Z,96377.44
2023-02-25T15:14:51.878Z,96384.19
2023-02-25T15:20:31.159Z,96386.47
2023-02-25T15:26:10.781Z,96402.50
2023-02-25T15:31:33.981Z,96393.16
2023-02-25T15:37:17.928Z,96394.59
2023-02-25T15:42:42.775Z,96391.50
2023-02-25T15:48:17.743Z,96409.94
2023-02-25T15:53:41.426Z,96409.63
2023-02-25T15:59:03.630Z,96424.19
2023-02-25T16:04:43.544Z,96423.09
2023-02-25T16:10:30.077Z,96437.44
2023-02-25T16:15:52.662Z,96456.25
2023-02-25T16:21:46.947Z,96457.88
2023-02-25T16:27:20.515Z,96480.28
2023-02-25T16:33:07.704Z,96495.53
2023-02-25T16:38:55.938Z,96489.28
2023-02-25T16:44:47.492Z,96501.06
2023-02-25T16:50:16.038Z,96509.63
2023-02-25T16:55:39.744Z,96514.03
2023-02-25T17:01:02.375Z,96538.00
2023-02-25T17:06:23.800Z,96536.53
2023-02-25T17:11:45.235Z,96541.66
2023-02-25T17:17:06.284Z,96558.06
2023-02-25T17:22:27.569Z,96563.59
2023-02-25T17:27:48.948Z,96572.16
2023-02-25T17:33:24.596Z,96579.88
2023-02-25T17:39:01.058Z,96587.25
2023-02-25T17:44:51.277Z,96587.09
2023-02-25T17:50:29.744Z,96596.13
2023-02-25T17:55:50.666Z,96603.22
2023-02-25T18:01:30.104Z,96616.88
2023-02-25T18:06:52.415Z,96617.13
2023-02-25T18:12:24.629Z,96621.19
2023-02-25T18:17:50.668Z,96625.81
2023-02-25T18:23:14.935Z,96629.00
2023-02-25T18:28:35.816Z,96628.84
2023-02-25T18:33:56.851Z,96638.16
2023-02-25T18:39:17.868Z,96649.31
2023-02-25T18:44:39.100Z,96649.72
2023-02-25T18:49:59.939Z,96654.78
2023-02-25T18:55:31.269Z,96661.88
2023-02-25T19:00:56.699Z,96672.13
2023-02-25T19:06:20.778Z,96672.22
2023-02-25T19:11:41.863Z,96682.94
2023-02-25T19:17:03.549Z,96684.38
2023-02-25T19:22:24.962Z,96693.81
2023-02-25T19:27:45.923Z,96709.28
2023-02-25T19:33:07.100Z,96707.03
2023-02-25T19:38:28.210Z,96723.66
2023-02-25T19:43:48.948Z,96716.19
2023-02-25T19:49:09.754Z,96735.03
2023-02-25T19:54:30.442Z,96734.53
2023-02-25T19:59:51.224Z,96738.06
2023-02-25T20:05:12.086Z,96748.63
2023-02-25T20:10:33.398Z,96749.75
2023-02-25T20:16:00.291Z,96761.91
2023-02-25T20:21:21.253Z,96774.56
2023-02-25T20:26:43.288Z,96765.06
2023-02-25T20:32:04.375Z,96786.22
2023-02-25T20:37:30.679Z,96797.03
2023-02-25T20:42:51.525Z,96803.84
2023-02-25T20:48:32.152Z,96804.97
2023-02-25T20:53:53.300Z,96813.66
2023-02-25T20:59:14.860Z,96817.28
2023-02-25T21:04:35.511Z,96836.78
2023-02-25T21:09:56.965Z,96824.47
2023-02-25T21:15:17.900Z,96832.00
2023-02-25T21:20:38.902Z,96825.03
2023-02-25T21:26:00.392Z,96843.63
2023-02-25T21:31:21.557Z,96846.06
2023-02-25T21:36:42.415Z,96848.97
2023-02-25T21:42:03.594Z,96853.59
2023-02-25T21:47:24.473Z,96853.22
2023-02-25T21:52:45.397Z,96851.72
2023-02-25T21:58:06.075Z,96855.03
2023-02-25T22:03:26.779Z,96860.03
2023-02-25T22:08:47.470Z,96849.75
2023-02-25T22:14:08.690Z,96859.31
2023-02-25T22:19:29.526Z,96858.44
2023-02-25T22:24:50.179Z,96865.41
2023-02-25T22:30:11.568Z,96868.16
2023-02-25T22:35:32.413Z,96868.72
2023-02-25T22:40:53.129Z,96868.00
2023-02-25T22:46:30.027Z,96874.97
2023-02-25T22:51:51.188Z,96878.84
2023-02-25T22:57:12.247Z,96881.44
2023-02-25T23:02:33.006Z,96883.06
2023-02-25T23:13:59.230Z,96900.50
2023-02-25T23:19:21.406Z,96901.78
2023-02-25T23:24:43.043Z,96915.19
2023-02-25T23:30:05.207Z,96910.78
2023-02-25T23:35:26.783Z,96926.22
2023-02-25T23:40:47.637Z,96918.00
2023-02-25T23:46:08.668Z,96922.75
2023-02-25T23:51:29.583Z,96919.84
2023-02-25T23:56:50.600Z,96925.75
